Subpeak Weather - Last 24 Hours


View Last Hour    View Last 24 Hours

Time
Avg. Air Temp
Dew Point
Avg. Rel Humidity
Avg. 2 Min Wind Speed
Max Gust Velocity
MGV Time
MGV Direction
Avg. Spot Wind Velocity
2016-12-09 13:10:00-18° C-20° C80%30 km/h34 km/h2016-12-09 13:08:10SE29 km/h
2016-12-09 12:10:00-18° C-20° C80%28 km/h40 km/h2016-12-09 12:06:00SE29 km/h
2016-12-09 11:10:00-18° C-22° C72%28 km/h34 km/h2016-12-09 11:09:10SE26 km/h
2016-12-09 10:10:00-17° C-28° C39%32 km/h39 km/h2016-12-09 10:07:10SE30 km/h
2016-12-09 09:10:00-17° C-29° C35%28 km/h35 km/h2016-12-09 09:06:00E27 km/h
2016-12-09 08:15:00-17° C-30° C32%24 km/h34 km/h2016-12-09 08:15:10SE22 km/h
2016-12-09 07:15:00-17° C-31° C29%25 km/h35 km/h2016-12-09 07:14:10E26 km/h
2016-12-09 06:15:00-18° C-29° C35%28 km/h36 km/h2016-12-09 06:13:10SE30 km/h
2016-12-09 05:15:00-17° C-30° C33%30 km/h37 km/h2016-12-09 05:15:10SE27 km/h
2016-12-09 04:15:00-18° C-29° C35%18 km/h21 km/h2016-12-09 04:13:10SE17 km/h
2016-12-09 03:15:00-17° C-30° C30%15 km/h19 km/h2016-12-09 03:12:10E15 km/h
2016-12-09 02:15:00-16° C-30° C31%21 km/h22 km/h2016-12-09 02:14:10E19 km/h
2016-12-09 01:15:00-16° C-26° C42%20 km/h26 km/h2016-12-09 01:12:10E22 km/h
2016-12-09 00:15:00-17° C-25° C52%19 km/h22 km/h2016-12-09 00:15:10E19 km/h
2016-12-08 23:15:00-19° C-25° C60%20 km/h23 km/h2016-12-08 23:13:10E20 km/h
2016-12-08 22:15:00-18° C-23° C67%13 km/h16 km/h2016-12-08 22:15:10E12 km/h
2016-12-08 21:15:00-18° C-22° C69%13 km/h20 km/h2016-12-08 21:11:00E14 km/h
2016-12-08 20:15:00-18° C-22° C73%14 km/h18 km/h2016-12-08 20:12:10E14 km/h
2016-12-08 19:15:00-20° C-23° C74%19 km/h22 km/h2016-12-08 19:13:10NE20 km/h
2016-12-08 18:15:00-19° C-22° C77%14 km/h17 km/h2016-12-08 18:14:10E11 km/h
2016-12-08 17:15:00-19° C-21° C79%13 km/h18 km/h2016-12-08 17:12:10E15 km/h
2016-12-08 16:15:00-19° C-22° C79%5 km/h9 km/h2016-12-08 16:12:10E7 km/h
2016-12-08 15:15:00-21° C-24° C77%20 km/h22 km/h2016-12-08 15:11:00NE20 km/h
2016-12-08 14:15:00-21° C-24° C78%37 km/h48 km/h2016-12-08 14:11:00NE39 km/h